Time;durP1;ratioP1;P1;durP2;ratioP2;P2;SDS_P1;SDS_P2;PMS_P1;PMS_P2;Temp;Humidity;BMP_temperature;BMP_pressure;BME280_temperature;BME280_humidity;BME280_pressure;Samples;Min_cycle;Max_cycle;Signal;HPM_P1;HPM_P2
2022/12/07 00:01:17;;;;;;;;;;;4.80;99.90;;;;;;5014140;28;19913;-76
2022/12/07 00:03:44;;;;;;;;;;;4.70;99.90;;;;;;5013648;28;20435;-75
2022/12/07 00:06:10;;;;;;;;;;;4.70;99.90;;;;;;5013745;28;19909;-75
2022/12/07 00:08:36;;;;;;;;;;;4.70;99.90;;;;;;5013613;28;19917;-75
2022/12/07 00:11:03;;;;;;;;;;;4.70;99.90;;;;;;5013682;28;19909;-75
2022/12/07 00:13:29;;;;;;;;;;;4.70;99.90;;;;;;5013661;28;20005;-75
2022/12/07 00:15:54;;;;;;;;;;;4.60;99.90;;;;;;5013640;28;19928;-75
2022/12/07 00:18:20;;;;;;;;;;;4.60;99.90;;;;;;5013545;28;20240;-75
2022/12/07 00:20:45;;;;;;;;;;;4.60;99.90;;;;;;5013651;28;20047;-79
2022/12/07 00:23:11;;;;;;;;;;;4.60;99.90;;;;;;5013431;28;19917;-76
2022/12/07 00:25:37;;;;;;;;;;;4.50;99.90;;;;;;5014037;28;19909;-75
2022/12/07 00:28:02;;;;;;;;;;;4.60;99.90;;;;;;5013439;28;19933;-74
2022/12/07 00:30:28;;;;;;;;;;;4.50;99.90;;;;;;5013705;28;19910;-75
2022/12/07 00:32:53;;;;;;;;;;;4.50;99.90;;;;;;5013074;28;19967;-75
2022/12/07 00:35:19;;;;;;;;;;;4.60;99.90;;;;;;5013390;28;20228;-75
2022/12/07 00:37:45;;;;;;;;;;;4.60;99.90;;;;;;5013276;28;19918;-79
2022/12/07 00:40:10;;;;;;;;;;;4.60;99.90;;;;;;5013153;28;19916;-76
2022/12/07 00:42:36;;;;;;;;;;;4.60;99.90;;;;;;5011921;28;20312;-76
2022/12/07 00:45:02;;;;;;;;;;;4.60;99.90;;;;;;5012865;28;20339;-75
2022/12/07 00:47:27;;;;;;;;;;;4.60;99.90;;;;;;5013126;28;19956;-76
2022/12/07 00:49:53;;;;;;;;;;;4.60;99.90;;;;;;5012965;28;19945;-76
2022/12/07 00:52:18;;;;;;;;;;;4.60;99.90;;;;;;5013191;28;19909;-76
2022/12/07 00:54:44;;;;;;;;;;;4.60;99.90;;;;;;5013148;28;20019;-76
2022/12/07 00:57:09;;;;;;;;;;;4.60;99.90;;;;;;5012488;28;19910;-75
2022/12/07 00:59:35;;;;;;;;;;;4.60;99.90;;;;;;5013454;28;19910;-76
2022/12/07 01:02:01;;;;;;;;;;;4.50;99.90;;;;;;5013231;28;19916;-75
2022/12/07 01:04:26;;;;;;;;;;;4.60;99.90;;;;;;5013232;28;20287;-75
2022/12/07 01:06:52;;;;;;;;;;;4.60;99.90;;;;;;5012671;28;19917;-76
2022/12/07 01:09:17;;;;;;;;;;;4.60;99.90;;;;;;5013213;28;19996;-76
2022/12/07 01:11:43;;;;;;;;;;;4.50;99.90;;;;;;5012852;28;19956;-75
2022/12/07 01:14:09;;;;;;;;;;;4.60;99.90;;;;;;5012498;28;20359;-76
2022/12/07 01:16:34;;;;;;;;;;;4.50;99.90;;;;;;5013164;28;19987;-75
2022/12/07 01:19:00;;;;;;;;;;;4.50;99.90;;;;;;5012460;28;19911;-75
2022/12/07 01:21:28;;;;;;;;;;;4.50;99.90;;;;;;5012979;28;19909;-76
2022/12/07 01:23:53;;;;;;;;;;;4.50;99.90;;;;;;5012190;28;20371;-77
2022/12/07 01:26:20;;;;;;;;;;;4.50;99.90;;;;;;5013161;28;19920;-76
2022/12/07 01:28:46;;;;;;;;;;;4.60;99.90;;;;;;5013357;28;19910;-79
2022/12/07 01:31:14;;;;;;;;;;;4.60;99.90;;;;;;5012861;28;19972;-77
2022/12/07 01:33:40;;;;;;;;;;;4.50;99.90;;;;;;5012778;28;19928;-76
2022/12/07 01:36:26;;;;;;;;;;;4.50;99.90;;;;;;5012275;28;20070;-76
2022/12/07 01:38:56;;;;;;;;;;;4.50;99.90;;;;;;5011890;28;19910;-78
2022/12/07 01:41:22;;;;;;;;;;;4.50;99.90;;;;;;5013072;28;20003;-77
2022/12/07 01:44:06;;;;;;;;;;;4.50;99.90;;;;;;5012486;28;20005;-80
2022/12/07 01:46:32;;;;;;;;;;;4.50;99.90;;;;;;5012516;28;20372;-77
2022/12/07 01:48:58;;;;;;;;;;;4.50;99.90;;;;;;5012188;28;19937;-77
2022/12/07 01:51:24;;;;;;;;;;;4.50;99.90;;;;;;5017567;28;19917;-77
2022/12/07 01:53:49;;;;;;;;;;;4.50;99.90;;;;;;5027397;28;19913;-81
2022/12/07 01:56:18;;;;;;;;;;;4.40;99.90;;;;;;5026419;28;19918;-76
2022/12/07 01:58:44;;;;;;;;;;;4.40;99.90;;;;;;5024722;28;19909;-77
2022/12/07 02:01:10;;;;;;;;;;;4.40;99.90;;;;;;5023289;28;19913;-77
2022/12/07 02:03:40;;;;;;;;;;;4.30;99.90;;;;;;5024346;28;19910;-78
2022/12/07 02:06:06;;;;;;;;;;;4.30;99.90;;;;;;5023015;28;19913;-76
2022/12/07 02:08:32;;;;;;;;;;;4.20;99.90;;;;;;5025116;28;19909;-77
2022/12/07 02:10:57;;;;;;;;;;;4.20;99.90;;;;;;5018426;28;19910;-76
2022/12/07 02:13:25;;;;;;;;;;;4.20;99.90;;;;;;5014847;28;19913;-76
2022/12/07 02:16:09;;;;;;;;;;;4.20;99.90;;;;;;5014582;28;19914;-80
2022/12/07 02:18:34;;;;;;;;;;;4.10;99.90;;;;;;5012832;28;19913;-77
2022/12/07 02:21:12;;;;;;;;;;;4.10;99.90;;;;;;5015130;28;19972;-77
2022/12/07 02:23:41;;;;;;;;;;;4.00;99.90;;;;;;5014741;28;19909;-76
2022/12/07 02:26:19;;;;;;;;;;;3.90;99.90;;;;;;5014339;28;19957;-77
2022/12/07 02:29:03;;;;;;;;;;;3.90;99.90;;;;;;5012597;28;20133;-77
2022/12/07 02:31:30;;;;;;;;;;;3.80;99.90;;;;;;5013747;28;19909;-77
2022/12/07 02:34:12;;;;;;;;;;;3.80;99.90;;;;;;5013310;28;19921;-77
2022/12/07 02:36:42;;;;;;;;;;;3.80;99.90;;;;;;5013510;28;20263;-77
2022/12/07 02:39:20;;;;;;;;;;;3.70;99.90;;;;;;5012841;28;19958;-77
2022/12/07 02:41:56;;;;;;;;;;;3.70;99.90;;;;;;5013400;28;19913;-77
2022/12/07 02:44:24;;;;;;;;;;;3.70;99.90;;;;;;5013138;28;19953;-77
2022/12/07 02:46:54;;;;;;;;;;;3.70;99.90;;;;;;5013650;28;19920;-77
2022/12/07 02:49:22;;;;;;;;;;;3.60;99.90;;;;;;5012433;28;19917;-77
2022/12/07 02:51:47;;;;;;;;;;;3.60;99.90;;;;;;5013221;28;20067;-77
2022/12/07 02:54:15;;;;;;;;;;;3.60;99.90;;;;;;5012346;28;19971;-77
2022/12/07 02:56:44;;;;;;;;;;;3.60;99.90;;;;;;5013648;28;20008;-77
2022/12/07 02:59:18;;;;;;;;;;;3.60;99.90;;;;;;5012016;28;19909;-77
2022/12/07 03:01:51;;;;;;;;;;;3.50;99.90;;;;;;5012421;28;19916;-77
2022/12/07 03:04:25;;;;;;;;;;;3.50;99.90;;;;;;5012526;28;19917;-77
2022/12/07 03:06:56;;;;;;;;;;;3.50;99.90;;;;;;5011221;28;19916;-77
2022/12/07 03:09:35;;;;;;;;;;;3.50;99.90;;;;;;5012970;28;19962;-77
2022/12/07 03:12:09;;;;;;;;;;;3.50;99.90;;;;;;5012283;28;19960;-78
2022/12/07 03:14:40;;;;;;;;;;;3.50;99.90;;;;;;5012210;28;19977;-77
2022/12/07 03:17:09;;;;;;;;;;;3.50;99.90;;;;;;5012371;28;19918;-77
2022/12/07 03:19:36;;;;;;;;;;;3.50;99.90;;;;;;5010682;28;20044;-77
2022/12/07 03:22:10;;;;;;;;;;;3.50;99.90;;;;;;5014696;28;20367;-77
2022/12/07 03:24:37;;;;;;;;;;;3.40;99.90;;;;;;5015214;28;20231;-77
2022/12/07 03:27:08;;;;;;;;;;;3.50;99.90;;;;;;5015055;28;19909;-78
2022/12/07 03:29:39;;;;;;;;;;;3.50;99.90;;;;;;5015136;28;20374;-78
2022/12/07 03:32:23;;;;;;;;;;;3.40;99.90;;;;;;5014993;28;19920;-78
2022/12/07 03:34:51;;;;;;;;;;;3.50;99.90;;;;;;5014826;28;19969;-77
2022/12/07 03:37:17;;;;;;;;;;;3.50;99.90;;;;;;5014409;28;20393;-75
2022/12/07 03:39:49;;;;;;;;;;;3.50;99.90;;;;;;5015031;28;19914;-76
2022/12/07 03:42:15;;;;;;;;;;;3.50;99.90;;;;;;5014821;28;20270;-76
2022/12/07 03:44:41;;;;;;;;;;;3.60;99.90;;;;;;5014906;28;19921;-77
2022/12/07 03:47:15;;;;;;;;;;;3.60;99.90;;;;;;5017360;28;20255;-77
2022/12/07 03:49:44;;;;;;;;;;;3.60;99.90;;;;;;5016501;28;19917;-76
2022/12/07 03:52:18;;;;;;;;;;;3.60;99.90;;;;;;5014889;28;19913;-77
2022/12/07 03:54:48;;;;;;;;;;;3.60;99.90;;;;;;5014997;28;19924;-77
2022/12/07 03:57:14;;;;;;;;;;;3.60;99.90;;;;;;5014321;28;20342;-76
2022/12/07 03:59:40;;;;;;;;;;;3.60;99.90;;;;;;5014971;28;19909;-77
2022/12/07 04:02:06;;;;;;;;;;;3.70;99.90;;;;;;5014544;28;19965;-77
2022/12/07 04:04:32;;;;;;;;;;;3.60;99.90;;;;;;5014586;28;19913;-77
2022/12/07 04:06:58;;;;;;;;;;;3.60;99.90;;;;;;5014503;28;19910;-81
2022/12/07 04:09:23;;;;;;;;;;;3.60;99.90;;;;;;5014537;28;19914;-77
2022/12/07 04:11:49;;;;;;;;;;;3.60;99.90;;;;;;5014362;28;20004;-76
2022/12/07 04:14:20;;;;;;;;;;;3.60;99.90;;;;;;5013968;28;19921;-76
2022/12/07 04:16:46;;;;;;;;;;;3.60;99.90;;;;;;5015124;28;19983;-76
2022/12/07 04:19:11;;;;;;;;;;;3.60;99.90;;;;;;5014087;28;19997;-76
2022/12/07 04:21:37;;;;;;;;;;;3.60;99.90;;;;;;5014451;28;20013;-76
2022/12/07 04:24:03;;;;;;;;;;;3.50;99.90;;;;;;5014134;28;19932;-77
2022/12/07 04:26:29;;;;;;;;;;;3.50;99.90;;;;;;5014260;28;19932;-76
2022/12/07 04:28:54;;;;;;;;;;;3.50;99.90;;;;;;5014480;28;19914;-76
2022/12/07 04:31:20;;;;;;;;;;;3.50;99.90;;;;;;5012240;28;19955;-76
2022/12/07 04:33:46;;;;;;;;;;;3.50;99.90;;;;;;5013732;28;19922;-75
2022/12/07 04:36:11;;;;;;;;;;;3.50;99.90;;;;;;5013681;28;20351;-76
2022/12/07 04:38:37;;;;;;;;;;;3.40;99.90;;;;;;5012316;28;19917;-78
2022/12/07 04:41:06;;;;;;;;;;;3.40;99.90;;;;;;5013408;28;19953;-78
2022/12/07 04:43:31;;;;;;;;;;;3.40;99.90;;;;;;5013803;28;19910;-77
2022/12/07 04:45:57;;;;;;;;;;;3.30;99.90;;;;;;5012329;28;19910;-76
2022/12/07 04:48:22;;;;;;;;;;;3.30;99.90;;;;;;5013101;28;19910;-76
2022/12/07 04:50:49;;;;;;;;;;;3.20;99.90;;;;;;5013461;28;19916;-78
2022/12/07 04:53:15;;;;;;;;;;;3.20;99.90;;;;;;5013016;28;19917;-76
2022/12/07 04:55:41;;;;;;;;;;;3.20;99.90;;;;;;5013259;28;20337;-76
2022/12/07 04:58:06;;;;;;;;;;;3.10;99.90;;;;;;5012710;28;19964;-77
2022/12/07 05:00:32;;;;;;;;;;;3.10;99.90;;;;;;5013318;28;19913;-76
2022/12/07 05:02:57;;;;;;;;;;;3.10;99.90;;;;;;5013143;28;19910;-77
2022/12/07 05:05:24;;;;;;;;;;;3.10;99.90;;;;;;5011221;28;19952;-76
2022/12/07 05:07:49;;;;;;;;;;;3.10;99.90;;;;;;5013000;28;19974;-76
2022/12/07 05:10:15;;;;;;;;;;;3.00;99.90;;;;;;5012659;28;20036;-76
2022/12/07 05:12:41;;;;;;;;;;;3.00;99.90;;;;;;5012995;28;19929;-76
2022/12/07 05:15:06;;;;;;;;;;;3.00;99.90;;;;;;5012082;28;19914;-77
2022/12/07 05:17:32;;;;;;;;;;;3.00;99.90;;;;;;5013393;28;19910;-76
2022/12/07 05:19:57;;;;;;;;;;;3.10;99.90;;;;;;5013250;28;19921;-76
2022/12/07 05:22:27;;;;;;;;;;;3.10;99.90;;;;;;5012725;28;19914;-76
2022/12/07 05:24:56;;;;;;;;;;;3.10;99.90;;;;;;5012364;28;19910;-76
2022/12/07 05:27:22;;;;;;;;;;;3.20;99.90;;;;;;5012170;28;20535;-76
2022/12/07 05:29:47;;;;;;;;;;;3.20;99.90;;;;;;5011546;28;19909;-76
2022/12/07 05:32:13;;;;;;;;;;;3.20;99.90;;;;;;5012198;28;20463;-76
2022/12/07 05:34:38;;;;;;;;;;;3.20;99.90;;;;;;5012286;28;19979;-76
2022/12/07 05:37:04;;;;;;;;;;;3.20;99.90;;;;;;5012478;28;19921;-79
2022/12/07 05:39:29;;;;;;;;;;;3.20;99.90;;;;;;5012664;28;19917;-76
2022/12/07 05:42:13;;;;;;;;;;;3.20;99.90;;;;;;5012381;28;19921;-77
2022/12/07 05:44:39;;;;;;;;;;;3.20;99.90;;;;;;5012000;28;20016;-76
2022/12/07 05:47:05;;;;;;;;;;;3.30;99.90;;;;;;5012282;28;19917;-80
2022/12/07 05:49:31;;;;;;;;;;;3.20;99.90;;;;;;5012502;28;19979;-76
2022/12/07 05:51:56;;;;;;;;;;;3.20;99.90;;;;;;5011761;28;20005;-76
2022/12/07 05:54:22;;;;;;;;;;;3.20;99.90;;;;;;5011812;28;19999;-76
2022/12/07 05:56:48;;;;;;;;;;;3.10;99.90;;;;;;5010711;28;20016;-77
2022/12/07 05:59:22;;;;;;;;;;;3.20;99.90;;;;;;5011617;28;20405;-77
2022/12/07 06:02:08;;;;;;;;;;;3.20;99.90;;;;;;5012107;28;19983;-77
2022/12/07 06:04:35;;;;;;;;;;;3.20;99.90;;;;;;5011668;28;19979;-77
2022/12/07 06:07:01;;;;;;;;;;;3.20;99.90;;;;;;5012219;28;19952;-77
2022/12/07 06:09:27;;;;;;;;;;;3.10;99.90;;;;;;5011578;28;20123;-77
2022/12/07 06:14:38;;;;;;;;;;;3.20;99.90;;;;;;5012068;28;20389;-77
2022/12/07 06:17:03;;;;;;;;;;;3.10;99.90;;;;;;5012069;28;19914;-77
2022/12/07 06:19:29;;;;;;;;;;;3.10;99.90;;;;;;5011398;28;19910;-76
2022/12/07 06:21:55;;;;;;;;;;;3.10;99.90;;;;;;5011638;28;19959;-77
2022/12/07 06:24:21;;;;;;;;;;;3.10;99.90;;;;;;5011060;28;20008;-77
2022/12/07 06:26:46;;;;;;;;;;;3.10;99.90;;;;;;5011939;28;20336;-77
2022/12/07 06:29:12;;;;;;;;;;;3.20;99.90;;;;;;5011254;28;19917;-77
2022/12/07 06:31:38;;;;;;;;;;;3.20;99.90;;;;;;5011410;28;19914;-77
2022/12/07 06:34:05;;;;;;;;;;;3.20;99.90;;;;;;5011782;28;19921;-77
2022/12/07 06:36:31;;;;;;;;;;;3.20;99.90;;;;;;5011407;28;19972;-77
2022/12/07 06:38:56;;;;;;;;;;;3.20;99.90;;;;;;5011478;28;19909;-77
2022/12/07 06:41:22;;;;;;;;;;;3.10;99.90;;;;;;5011217;28;19917;-77
2022/12/07 06:43:48;;;;;;;;;;;3.10;99.90;;;;;;5011357;28;20367;-76
2022/12/07 06:46:14;;;;;;;;;;;3.00;99.90;;;;;;5010863;28;19996;-76
2022/12/07 06:48:40;;;;;;;;;;;3.00;99.90;;;;;;5009964;28;20263;-76
2022/12/07 06:51:05;;;;;;;;;;;3.00;99.90;;;;;;5011303;28;19964;-76
2022/12/07 06:53:31;;;;;;;;;;;3.00;99.90;;;;;;5010951;28;19914;-76
2022/12/07 06:55:56;;;;;;;;;;;3.10;99.90;;;;;;5013705;28;20019;-77
2022/12/07 06:58:22;;;;;;;;;;;3.10;99.90;;;;;;5016105;28;19992;-78
2022/12/07 07:00:48;;;;;;;;;;;3.00;99.90;;;;;;5023312;28;20358;-77
2022/12/07 07:03:14;;;;;;;;;;;3.10;99.90;;;;;;5021722;28;19936;-77
2022/12/07 07:05:40;;;;;;;;;;;3.00;99.90;;;;;;5023102;28;20000;-77
2022/12/07 07:08:05;;;;;;;;;;;3.00;99.90;;;;;;5028503;28;19913;-78
2022/12/07 07:10:31;;;;;;;;;;;3.00;99.90;;;;;;5028781;28;19915;-79
2022/12/07 07:12:56;;;;;;;;;;;2.90;99.90;;;;;;5025967;28;19948;-78
2022/12/07 07:15:22;;;;;;;;;;;2.90;99.90;;;;;;5017767;28;19918;-77
2022/12/07 07:17:47;;;;;;;;;;;2.90;99.90;;;;;;5016001;28;20328;-77
2022/12/07 07:20:13;;;;;;;;;;;2.80;99.90;;;;;;5013611;28;19910;-76
2022/12/07 07:22:39;;;;;;;;;;;2.80;99.90;;;;;;5015187;28;19932;-76
2022/12/07 07:25:04;;;;;;;;;;;2.80;99.90;;;;;;5015382;28;20378;-76
2022/12/07 07:27:30;;;;;;;;;;;2.80;99.90;;;;;;5013135;28;20139;-77
2022/12/07 07:29:55;;;;;;;;;;;2.80;99.90;;;;;;5015084;28;19956;-77
2022/12/07 07:32:21;;;;;;;;;;;2.80;99.90;;;;;;5014894;28;20271;-77
2022/12/07 07:34:47;;;;;;;;;;;2.90;99.90;;;;;;5014778;28;19922;-76
2022/12/07 07:37:13;;;;;;;;;;;2.90;99.90;;;;;;5014975;28;19959;-81
2022/12/07 07:39:38;;;;;;;;;;;2.90;99.90;;;;;;5015166;28;19956;-77
2022/12/07 07:42:04;;;;;;;;;;;2.90;99.90;;;;;;5014618;28;19916;-78
2022/12/07 07:44:30;;;;;;;;;;;2.90;99.90;;;;;;5014318;28;20248;-77
2022/12/07 07:46:55;;;;;;;;;;;2.90;99.90;;;;;;5014490;28;19996;-76
2022/12/07 07:49:21;;;;;;;;;;;2.80;99.90;;;;;;5013872;28;19937;-77
2022/12/07 07:51:46;;;;;;;;;;;2.90;99.90;;;;;;5014264;28;19910;-76
2022/12/07 07:54:12;;;;;;;;;;;2.90;99.90;;;;;;5014118;28;19917;-79
2022/12/07 07:56:37;;;;;;;;;;;2.90;99.90;;;;;;5013891;28;20359;-76
2022/12/07 07:59:03;;;;;;;;;;;2.90;99.90;;;;;;5014104;28;19952;-77
2022/12/07 08:01:29;;;;;;;;;;;2.90;99.90;;;;;;5013836;28;19910;-77
2022/12/07 08:03:54;;;;;;;;;;;2.80;99.90;;;;;;5014551;28;19917;-76
2022/12/07 08:06:20;;;;;;;;;;;2.80;99.90;;;;;;5013506;28;19916;-77
2022/12/07 08:08:45;;;;;;;;;;;2.80;99.90;;;;;;5013848;28;19933;-76
2022/12/07 08:11:11;;;;;;;;;;;2.80;99.90;;;;;;5014147;28;19916;-77
2022/12/07 08:13:37;;;;;;;;;;;2.70;99.90;;;;;;5013451;28;19914;-77
2022/12/07 08:16:06;;;;;;;;;;;2.70;99.90;;;;;;5014175;28;19968;-77
2022/12/07 08:18:34;;;;;;;;;;;2.70;99.90;;;;;;5013554;28;19909;-77
2022/12/07 08:21:00;;;;;;;;;;;2.70;99.90;;;;;;5014060;28;20012;-77
2022/12/07 08:23:26;;;;;;;;;;;2.60;99.90;;;;;;5013511;28;20439;-77
2022/12/07 08:25:52;;;;;;;;;;;2.60;99.90;;;;;;5013784;28;20000;-76
2022/12/07 08:28:17;;;;;;;;;;;2.50;99.90;;;;;;5013678;28;19910;-78
2022/12/07 08:30:43;;;;;;;;;;;2.50;99.90;;;;;;5014160;28;19910;-77
2022/12/07 08:33:09;;;;;;;;;;;2.40;99.90;;;;;;5012188;28;19967;-76
2022/12/07 08:35:34;;;;;;;;;;;2.40;99.90;;;;;;5012888;28;19910;-77
2022/12/07 08:38:01;;;;;;;;;;;2.40;99.90;;;;;;5013506;28;19909;-77
2022/12/07 08:40:27;;;;;;;;;;;2.40;99.90;;;;;;5012169;28;20010;-77
2022/12/07 08:42:53;;;;;;;;;;;2.40;99.90;;;;;;5013257;28;20009;-75
2022/12/07 08:45:20;;;;;;;;;;;2.30;99.90;;;;;;5012651;28;19929;-75
2022/12/07 08:48:08;;;;;;;;;;;2.30;99.90;;;;;;5012935;28;20398;-75
2022/12/07 08:50:36;;;;;;;;;;;2.20;99.90;;;;;;5006066;28;20327;-76
2022/12/07 08:53:02;;;;;;;;;;;2.10;99.90;;;;;;5013217;28;20383;-76
2022/12/07 08:55:28;;;;;;;;;;;2.20;99.90;;;;;;5013068;28;19920;-76
2022/12/07 08:57:54;;;;;;;;;;;2.20;99.90;;;;;;5013087;28;20332;-74
2022/12/07 09:00:20;;;;;;;;;;;2.30;99.90;;;;;;5012374;28;19921;-77
2022/12/07 09:02:46;;;;;;;;;;;2.30;99.90;;;;;;5011641;28;19921;-76
2022/12/07 09:05:14;;;;;;;;;;;2.20;99.90;;;;;;5013354;28;19948;-76
2022/12/07 09:07:40;;;;;;;;;;;2.20;99.90;;;;;;5013049;28;19913;-77
2022/12/07 09:10:06;;;;;;;;;;;2.20;99.90;;;;;;5012795;28;19910;-77
2022/12/07 09:12:32;;;;;;;;;;;2.20;99.90;;;;;;5011527;28;19971;-78
2022/12/07 09:14:57;;;;;;;;;;;2.20;99.90;;;;;;5013062;28;19917;-76
2022/12/07 09:17:23;;;;;;;;;;;2.20;99.90;;;;;;5011787;28;20048;-78
2022/12/07 09:19:48;;;;;;;;;;;2.20;99.90;;;;;;5012924;28;20321;-76
2022/12/07 09:22:14;;;;;;;;;;;2.10;99.90;;;;;;5012930;28;19981;-76
2022/12/07 09:24:40;;;;;;;;;;;2.10;99.90;;;;;;5012237;28;19941;-75
2022/12/07 09:27:05;;;;;;;;;;;2.10;99.90;;;;;;5012698;28;19964;-76
2022/12/07 09:29:31;;;;;;;;;;;2.10;99.90;;;;;;5012962;28;19910;-76
2022/12/07 09:31:56;;;;;;;;;;;2.20;99.90;;;;;;5012604;28;19910;-77
2022/12/07 09:34:22;;;;;;;;;;;2.20;99.90;;;;;;5011140;28;19933;-77
2022/12/07 09:36:47;;;;;;;;;;;2.20;99.90;;;;;;5012913;28;19921;-76
2022/12/07 09:39:13;;;;;;;;;;;2.20;99.90;;;;;;5012879;28;19961;-75
2022/12/07 09:41:43;;;;;;;;;;;2.30;99.90;;;;;;5012049;28;19905;-76
2022/12/07 09:44:13;;;;;;;;;;;2.40;99.90;;;;;;5012053;28;20052;-77
2022/12/07 09:46:40;;;;;;;;;;;2.40;99.90;;;;;;5012602;28;20076;-77
2022/12/07 09:49:09;;;;;;;;;;;2.40;99.90;;;;;;5013033;28;19913;-76
2022/12/07 09:51:35;;;;;;;;;;;2.50;99.90;;;;;;5012082;28;19980;-74
2022/12/07 09:54:01;;;;;;;;;;;2.50;99.90;;;;;;5012129;28;20379;-77
2022/12/07 09:56:28;;;;;;;;;;;2.50;99.90;;;;;;5011711;28;19956;-76
2022/12/07 09:59:02;;;;;;;;;;;2.50;99.90;;;;;;5011931;28;19914;-76
2022/12/07 10:01:29;;;;;;;;;;;2.60;99.90;;;;;;5011644;28;19956;-76
2022/12/07 10:04:06;;;;;;;;;;;2.60;99.90;;;;;;5011892;28;20330;-77
2022/12/07 10:06:32;;;;;;;;;;;2.70;99.90;;;;;;5011510;28;20232;-76
2022/12/07 10:08:57;;;;;;;;;;;2.70;99.90;;;;;;5011936;28;19909;-76
2022/12/07 10:11:23;;;;;;;;;;;2.70;99.90;;;;;;5011448;28;19910;-77
2022/12/07 10:13:53;;;;;;;;;;;2.60;99.90;;;;;;5011760;28;20044;-76
2022/12/07 10:16:25;;;;;;;;;;;2.60;99.90;;;;;;5011884;28;19986;-76
2022/12/07 10:18:51;;;;;;;;;;;2.70;99.90;;;;;;5010738;28;19929;-76
2022/12/07 10:21:20;;;;;;;;;;;2.80;99.90;;;;;;5011830;28;19916;-76
2022/12/07 10:24:02;;;;;;;;;;;2.80;99.90;;;;;;5011351;28;19914;-76
2022/12/07 10:26:48;;;;;;;;;;;2.80;99.90;;;;;;5011588;28;19909;-76
2022/12/07 10:29:31;;;;;;;;;;;2.80;99.90;;;;;;5010633;28;20280;-77
2022/12/07 10:32:01;;;;;;;;;;;2.90;99.90;;;;;;5011642;28;20365;-77
2022/12/07 10:34:29;;;;;;;;;;;2.90;99.90;;;;;;5010643;28;19921;-80
2022/12/07 10:37:06;;;;;;;;;;;2.90;99.90;;;;;;5003596;28;19909;-76
2022/12/07 10:39:40;;;;;;;;;;;3.00;99.90;;;;;;5010539;28;19909;-77
2022/12/07 10:42:15;;;;;;;;;;;3.00;99.90;;;;;;5012266;28;19989;-76
2022/12/07 10:44:42;;;;;;;;;;;3.00;99.90;;;;;;5011749;28;20071;-76
2022/12/07 10:47:14;;;;;;;;;;;3.00;99.90;;;;;;5012153;28;19909;-76
2022/12/07 10:49:50;;;;;;;;;;;3.00;99.90;;;;;;5012037;28;19916;-76
2022/12/07 10:52:30;;;;;;;;;;;3.10;99.90;;;;;;5012090;28;19913;-76
2022/12/07 10:54:56;;;;;;;;;;;3.10;99.90;;;;;;5012040;28;19921;-76
2022/12/07 10:57:25;;;;;;;;;;;3.10;99.90;;;;;;5011844;28;20094;-76
2022/12/07 10:59:50;;;;;;;;;;;3.00;99.90;;;;;;5011836;28;19910;-76
2022/12/07 11:02:22;;;;;;;;;;;3.10;99.90;;;;;;5011752;28;19920;-76
2022/12/07 11:04:50;;;;;;;;;;;3.10;99.90;;;;;;5009977;28;19917;-75
2022/12/07 11:07:25;;;;;;;;;;;3.20;99.90;;;;;;5011783;28;19996;-75
2022/12/07 11:10:02;;;;;;;;;;;3.20;99.90;;;;;;5011611;28;20382;-77
2022/12/07 11:12:30;;;;;;;;;;;3.20;99.90;;;;;;5011824;28;19916;-78
2022/12/07 11:14:55;;;;;;;;;;;3.20;99.90;;;;;;5011389;28;20441;-76
2022/12/07 11:17:36;;;;;;;;;;;3.30;99.90;;;;;;5011733;28;19953;-76
2022/12/07 11:20:13;;;;;;;;;;;3.20;99.90;;;;;;5010302;28;19909;-76
2022/12/07 11:22:41;;;;;;;;;;;3.30;99.90;;;;;;5011385;28;20386;-77
2022/12/07 11:25:13;;;;;;;;;;;3.30;99.90;;;;;;5011695;28;19913;-76
2022/12/07 11:27:48;;;;;;;;;;;3.40;99.90;;;;;;5011436;28;19917;-76
2022/12/07 11:30:22;;;;;;;;;;;3.40;99.90;;;;;;5011706;28;20251;-76
2022/12/07 11:33:06;;;;;;;;;;;3.40;99.90;;;;;;5010762;28;20290;-76
2022/12/07 11:35:58;;;;;;;;;;;3.40;99.90;;;;;;5011165;28;19910;-77
2022/12/07 11:38:35;;;;;;;;;;;3.40;99.90;;;;;;5008995;28;19910;-76
2022/12/07 11:41:12;;;;;;;;;;;3.50;99.90;;;;;;5012667;28;19917;-77
2022/12/07 11:43:45;;;;;;;;;;;3.60;99.90;;;;;;5014842;28;19918;-75
2022/12/07 11:46:13;;;;;;;;;;;3.60;99.90;;;;;;5015179;28;19996;-76
2022/12/07 11:48:45;;;;;;;;;;;3.60;99.90;;;;;;5015454;28;19919;-76
2022/12/07 11:51:11;;;;;;;;;;;3.60;99.90;;;;;;5015088;28;20298;-77
2022/12/07 11:53:55;;;;;;;;;;;3.60;99.90;;;;;;5014273;28;19928;-75
2022/12/07 11:56:21;;;;;;;;;;;3.60;99.90;;;;;;5014644;28;20363;-77
2022/12/07 11:58:47;;;;;;;;;;;3.70;99.90;;;;;;5014698;28;19906;-76
2022/12/07 12:01:33;;;;;;;;;;;3.70;99.90;;;;;;5014746;28;19910;-76
2022/12/07 12:04:12;;;;;;;;;;;3.80;99.90;;;;;;5014818;28;20302;-77
2022/12/07 12:06:39;;;;;;;;;;;3.80;99.90;;;;;;5014684;28;19910;-77
2022/12/07 12:09:09;;;;;;;;;;;3.90;99.90;;;;;;5014790;28;19909;-77
2022/12/07 12:11:56;;;;;;;;;;;3.90;99.90;;;;;;5014346;28;19963;-78
2022/12/07 12:14:21;;;;;;;;;;;4.00;99.90;;;;;;5014440;28;19918;-76
2022/12/07 12:16:56;;;;;;;;;;;4.00;99.90;;;;;;5012889;28;19916;-76
2022/12/07 12:19:21;;;;;;;;;;;4.00;99.90;;;;;;5014637;28;19916;-76
2022/12/07 12:21:49;;;;;;;;;;;4.10;99.90;;;;;;5014126;28;19909;-76
2022/12/07 12:24:19;;;;;;;;;;;4.10;99.90;;;;;;5014486;28;19956;-76
2022/12/07 12:26:52;;;;;;;;;;;4.10;99.90;;;;;;5014557;28;20030;-76
2022/12/07 12:29:21;;;;;;;;;;;4.10;99.90;;;;;;5014552;28;19933;-76
2022/12/07 12:32:04;;;;;;;;;;;4.10;99.90;;;;;;5013866;28;19913;-77
2022/12/07 12:34:30;;;;;;;;;;;4.10;99.90;;;;;;5014030;28;19921;-80
2022/12/07 12:36:55;;;;;;;;;;;4.20;99.90;;;;;;5014649;28;19983;-77
2022/12/07 12:39:23;;;;;;;;;;;4.20;99.90;;;;;;5012748;28;20013;-77
2022/12/07 12:44:21;;;;;;;;;;;4.30;99.90;;;;;;5013713;28;19909;-77
2022/12/07 12:46:56;;;;;;;;;;;4.30;99.90;;;;;;5017456;28;19916;-76
2022/12/07 12:49:22;;;;;;;;;;;4.40;99.90;;;;;;5036329;28;19914;-75
2022/12/07 12:51:47;;;;;;;;;;;4.40;99.90;;;;;;5036338;28;19970;-78
2022/12/07 12:54:33;;;;;;;;;;;4.40;99.90;;;;;;5035583;28;19952;-76
2022/12/07 12:57:08;;;;;;;;;;;4.50;99.90;;;;;;5035653;28;19997;-76
2022/12/07 12:59:39;;;;;;;;;;;4.50;99.90;;;;;;5036286;28;19914;-80
2022/12/07 13:02:24;;;;;;;;;;;4.60;99.90;;;;;;5035261;28;19913;-77
2022/12/07 13:05:01;;;;;;;;;;;4.60;99.90;;;;;;5035745;28;19923;-76
2022/12/07 13:07:51;;;;;;;;;;;4.70;99.90;;;;;;5035705;28;19948;-76
2022/12/07 13:10:28;;;;;;;;;;;4.70;99.90;;;;;;5017048;28;20224;-75
2022/12/07 13:12:57;;;;;;;;;;;4.70;99.90;;;;;;5017213;28;19933;-76
2022/12/07 13:15:33;;;;;;;;;;;4.80;99.90;;;;;;5016236;28;20046;-77
2022/12/07 13:18:02;;;;;;;;;;;4.80;99.90;;;;;;5014058;28;21661;-76
2022/12/07 13:20:46;;;;;;;;;;;4.90;99.90;;;;;;5014655;28;20004;-76
2022/12/07 13:23:13;;;;;;;;;;;4.90;99.90;;;;;;5014679;28;19917;-77
2022/12/07 13:26:00;;;;;;;;;;;4.90;99.90;;;;;;5014335;28;19917;-79
2022/12/07 13:28:31;;;;;;;;;;;4.90;99.90;;;;;;5014635;28;20043;-76
2022/12/07 13:31:04;;;;;;;;;;;4.90;99.90;;;;;;5014166;28;19990;-77
2022/12/07 13:33:30;;;;;;;;;;;5.00;99.90;;;;;;5013564;28;20016;-77
2022/12/07 13:35:56;;;;;;;;;;;5.00;99.90;;;;;;5013343;28;19949;-76
2022/12/07 13:38:29;;;;;;;;;;;5.00;99.90;;;;;;5013929;28;20004;-76
2022/12/07 13:41:12;;;;;;;;;;;5.00;99.90;;;;;;5013794;28;19917;-76
2022/12/07 13:43:56;;;;;;;;;;;5.00;99.90;;;;;;5013398;28;19914;-77
2022/12/07 13:46:25;;;;;;;;;;;5.00;99.90;;;;;;5014121;28;19996;-77
2022/12/07 13:48:51;;;;;;;;;;;5.00;99.90;;;;;;5015158;28;20019;-78
2022/12/07 13:51:21;;;;;;;;;;;5.00;99.90;;;;;;5014560;28;20319;-78
2022/12/07 13:53:52;;;;;;;;;;;5.00;99.90;;;;;;5013883;28;19917;-77
2022/12/07 13:56:18;;;;;;;;;;;5.00;99.90;;;;;;5015076;28;19953;-78
2022/12/07 13:58:44;;;;;;;;;;;5.00;99.90;;;;;;5014025;28;19913;-77
2022/12/07 14:01:10;;;;;;;;;;;5.00;99.90;;;;;;5014867;28;20004;-77
2022/12/07 14:03:36;;;;;;;;;;;5.00;99.90;;;;;;5013236;28;19999;-81
2022/12/07 14:06:07;;;;;;;;;;;5.00;99.90;;;;;;5014226;28;19909;-80
2022/12/07 14:08:33;;;;;;;;;;;5.00;99.90;;;;;;5013105;28;20232;-81
2022/12/07 14:10:59;;;;;;;;;;;5.00;99.90;;;;;;5012336;28;19917;-76
2022/12/07 14:13:28;;;;;;;;;;;5.00;99.90;;;;;;5012458;28;20304;-78
2022/12/07 14:15:54;;;;;;;;;;;5.00;99.90;;;;;;5010801;28;19913;-81
2022/12/07 14:18:29;;;;;;;;;;;5.00;99.90;;;;;;5012637;28;19910;-77
2022/12/07 14:21:05;;;;;;;;;;;5.00;99.90;;;;;;5012490;28;19906;-77
2022/12/07 14:23:31;;;;;;;;;;;5.00;99.90;;;;;;5011984;28;19915;-77
2022/12/07 14:26:22;;;;;;;;;;;5.10;99.90;;;;;;5012181;28;19909;-77
2022/12/07 14:28:48;;;;;;;;;;;5.10;99.90;;;;;;5010148;28;19989;-78
2022/12/07 14:31:15;;;;;;;;;;;5.10;99.90;;;;;;5012043;28;19992;-77
2022/12/07 14:33:41;;;;;;;;;;;5.10;99.90;;;;;;5011549;28;19975;-77
2022/12/07 14:36:10;;;;;;;;;;;5.10;99.90;;;;;;5012480;28;20008;-77
2022/12/07 14:38:36;;;;;;;;;;;5.00;99.90;;;;;;5011998;28;19913;-77
2022/12/07 14:43:48;;;;;;;;;;;5.00;99.90;;;;;;5011760;28;20476;-77
2022/12/07 14:46:13;;;;;;;;;;;5.00;99.90;;;;;;5010990;28;19968;-77
2022/12/07 14:48:39;;;;;;;;;;;4.90;99.90;;;;;;5007738;28;19953;-78